New Eagle, Pennsylvania
Current Conditions -  °F | °C
As of 10:53 AM on Friday 21 Nov 2014 (Local Time) from KAGC Reporting Station
Broken Clouds Broken Clouds  
Wind Chill: 11°   Ceiling: 3200
Heat Index: 24°   Visibility: 10mi
Dew Point:   Wind: 15mph
Humidity: 53%   Direction: 320°NW
Pressure: 30.43"   Gusts: NA
Location:  40.21°N, 79.95°W
Report Text: KAGC 211553Z 32013KT 10SM BKN032 M04/M13 A3043 RMK AO2 SLP327 T10441128
Loading
Personal Weather Stations






























Interactive Weather Map New forecast layout! Learn more

10-Day Weather Forecast

Advertisements
Track Severe Weather on mobile